Time;durP1;ratioP1;P1;durP2;ratioP2;P2;SDS_P1;SDS_P2;PMS_P1;PMS_P2;Temp;Humidity;BMP_temperature;BMP_pressure;BME280_temperature;BME280_humidity;BME280_pressure;Samples;Min_cycle;Max_cycle;Signal;HPM_P1;HPM_P2
2023/09/12 00:00:47;;;;;;;16.10;6.80;;;20.40;99.90;;;;;;5020753;28;20036;-69
2023/09/12 00:03:13;;;;;;;16.90;7.05;;;20.50;99.90;;;;;;5020463;28;20019;-69
2023/09/12 00:05:39;;;;;;;18.67;7.40;;;20.60;99.90;;;;;;5020653;28;20029;-69
2023/09/12 00:08:04;;;;;;;15.88;7.75;;;20.70;99.90;;;;;;5037714;28;20076;-69
2023/09/12 00:10:31;;;;;;;17.17;7.85;;;20.70;99.90;;;;;;5020428;28;20022;-69
2023/09/12 00:12:56;;;;;;;14.57;6.97;;;20.70;99.90;;;;;;5020424;28;20053;-68
2023/09/12 00:15:22;;;;;;;17.25;7.75;;;20.70;99.90;;;;;;5021206;28;20026;-69
2023/09/12 00:17:50;;;;;;;19.92;8.18;;;20.70;99.90;;;;;;5020902;28;20025;-69
2023/09/12 00:20:16;;;;;;;20.17;7.03;;;20.70;99.90;;;;;;5020540;28;20021;-69
2023/09/12 00:22:41;;;;;;;13.43;6.32;;;20.70;99.90;;;;;;5020724;28;20083;-69
2023/09/12 00:25:07;;;;;;;18.33;7.60;;;20.50;99.90;;;;;;5020346;28;20025;-69
2023/09/12 00:27:32;;;;;;;16.75;6.90;;;20.50;99.90;;;;;;5020112;28;20026;-69
2023/09/12 00:29:58;;;;;;;14.38;6.60;;;20.50;99.90;;;;;;5020747;28;20048;-69
2023/09/12 00:32:23;;;;;;;19.67;7.68;;;20.50;99.90;;;;;;5020067;28;20029;-69
2023/09/12 00:34:49;;;;;;;23.38;7.55;;;20.50;99.90;;;;;;5021168;28;20014;-64
2023/09/12 00:37:15;;;;;;;18.83;8.25;;;20.60;99.90;;;;;;5020307;28;20176;-63
2023/09/12 00:39:40;;;;;;;18.80;7.53;;;20.70;99.90;;;;;;5020506;28;20025;-63
2023/09/12 00:42:07;;;;;;;16.05;7.07;;;20.60;99.90;;;;;;5019882;28;20022;-63
2023/09/12 00:44:33;;;;;;;20.13;7.78;;;20.60;99.90;;;;;;5020679;28;20036;-63
2023/09/12 00:47:01;;;;;;;16.83;6.72;;;20.60;99.90;;;;;;5020639;28;20052;-63
2023/09/12 00:49:27;;;;;;;17.35;7.80;;;20.50;99.90;;;;;;5020133;28;20029;-63
2023/09/12 00:51:54;;;;;;;27.27;7.75;;;20.40;99.90;;;;;;5019801;28;20083;-63
2023/09/12 00:54:20;;;;;;;20.60;7.10;;;20.30;99.90;;;;;;5020780;28;20052;-63
2023/09/12 00:56:46;;;;;;;20.80;7.53;;;20.20;99.90;;;;;;5020058;28;20017;-63
2023/09/12 00:59:12;;;;;;;19.98;8.02;;;20.20;99.90;;;;;;5020101;28;20029;-70
2023/09/12 01:01:38;;;;;;;16.67;7.93;;;20.20;99.90;;;;;;5020002;28;20060;-69
2023/09/12 01:04:04;;;;;;;18.63;7.95;;;20.10;99.90;;;;;;5020641;28;20060;-69
2023/09/12 01:06:31;;;;;;;18.83;7.25;;;20.10;99.90;;;;;;5019868;28;20026;-69
2023/09/12 01:08:57;;;;;;;12.43;7.93;;;20.10;99.90;;;;;;5020101;28;20022;-69
2023/09/12 01:11:24;;;;;;;14.35;7.57;;;20.10;99.90;;;;;;5019538;28;20036;-62
2023/09/12 01:13:49;;;;;;;16.30;7.63;;;20.10;99.90;;;;;;5019460;28;20029;-62
2023/09/12 01:16:15;;;;;;;18.42;7.50;;;20.00;99.90;;;;;;5019743;28;20018;-62
2023/09/12 01:18:42;;;;;;;21.92;7.88;;;19.80;99.90;;;;;;5019434;28;20112;-62
2023/09/12 01:21:38;;;;;;;20.40;8.45;;;19.80;99.90;;;;;;5019814;28;20026;-62
2023/09/12 01:24:30;;;;;;;18.42;8.13;;;19.70;99.90;;;;;;5019522;28;20032;-69
2023/09/12 01:27:22;;;;;;;22.73;8.57;;;19.70;99.90;;;;;;5019626;28;20032;-69
2023/09/12 01:29:53;;;;;;;19.88;8.30;;;19.70;99.90;;;;;;5020504;28;20087;-62
2023/09/12 01:32:20;;;;;;;22.92;8.40;;;19.80;99.90;;;;;;5019732;28;20107;-62
2023/09/12 01:34:45;;;;;;;21.13;7.45;;;19.80;99.90;;;;;;5019767;28;20030;-62
2023/09/12 01:37:11;;;;;;;21.67;8.15;;;19.70;99.90;;;;;;5019532;28;20032;-63
2023/09/12 01:39:36;;;;;;;20.98;7.80;;;19.80;99.90;;;;;;5020789;28;20033;-62
2023/09/12 01:42:03;;;;;;;17.63;8.00;;;19.80;99.90;;;;;;5023708;28;20128;-62
2023/09/12 01:44:30;;;;;;;16.35;8.23;;;19.70;99.90;;;;;;5024012;28;20072;-69
2023/09/12 01:47:01;;;;;;;20.38;7.45;;;19.50;99.90;;;;;;5024042;28;20085;-69
2023/09/12 01:49:28;;;;;;;15.77;7.70;;;19.50;99.90;;;;;;5023366;28;20034;-69
2023/09/12 01:51:54;;;;;;;21.10;7.70;;;19.50;99.90;;;;;;5023286;28;20076;-69
2023/09/12 01:54:21;;;;;;;21.27;8.32;;;19.50;99.90;;;;;;5023585;28;20022;-69
2023/09/12 01:56:47;;;;;;;22.33;8.75;;;19.50;99.90;;;;;;5023472;28;20036;-69
2023/09/12 01:59:13;;;;;;;13.25;7.50;;;19.50;99.90;;;;;;5022899;28;20025;-69
2023/09/12 02:01:39;;;;;;;17.85;7.45;;;19.50;99.90;;;;;;5023591;28;20087;-69
2023/09/12 02:04:08;;;;;;;16.90;7.97;;;19.50;99.90;;;;;;5023950;28;20057;-69
2023/09/12 02:06:34;;;;;;;14.07;6.78;;;19.50;99.90;;;;;;5022746;28;20053;-62
2023/09/12 02:09:00;;;;;;;15.35;8.35;;;19.40;99.90;;;;;;5022861;28;20033;-62
2023/09/12 02:11:26;;;;;;;24.77;8.63;;;19.40;99.90;;;;;;5022660;28;20026;-63
2023/09/12 02:13:52;;;;;;;20.98;8.90;;;19.30;99.90;;;;;;5022878;28;20021;-62
2023/09/12 02:16:17;;;;;;;17.17;9.02;;;19.30;99.90;;;;;;5023210;28;20116;-62
2023/09/12 02:18:43;;;;;;;17.65;8.20;;;19.40;99.90;;;;;;5023374;28;20139;-62
2023/09/12 02:21:09;;;;;;;12.93;7.70;;;19.50;99.90;;;;;;5023085;28;20025;-62
2023/09/12 02:23:34;;;;;;;16.42;7.88;;;19.50;99.90;;;;;;5022792;28;20017;-62
2023/09/12 02:26:00;;;;;;;21.10;8.10;;;19.40;99.90;;;;;;5022886;28;20053;-62
2023/09/12 02:28:25;;;;;;;14.48;8.25;;;19.30;99.90;;;;;;5022995;28;20029;-69
2023/09/12 02:30:51;;;;;;;15.05;8.48;;;19.20;99.90;;;;;;5022369;28;20021;-69
2023/09/12 02:33:16;;;;;;;20.10;9.25;;;19.20;99.90;;;;;;5022279;28;20060;-69
2023/09/12 02:35:42;;;;;;;18.67;9.55;;;19.20;99.90;;;;;;5022731;28;20033;-69
2023/09/12 02:38:09;;;;;;;19.08;8.48;;;19.20;99.90;;;;;;5022618;28;20044;-69
2023/09/12 02:40:34;;;;;;;12.25;8.40;;;19.20;99.90;;;;;;5022950;28;20025;-69
2023/09/12 02:43:00;;;;;;;13.93;8.15;;;19.10;99.90;;;;;;5022486;28;20022;-69
2023/09/12 02:45:25;;;;;;;20.05;6.85;;;18.90;99.90;;;;;;5022138;28;20084;-69
2023/09/12 02:47:51;;;;;;;15.10;7.55;;;18.80;99.90;;;;;;5022316;28;20029;-69
2023/09/12 02:50:16;;;;;;;24.33;7.97;;;18.80;99.90;;;;;;5023059;28;20060;-69
2023/09/12 02:52:42;;;;;;;18.77;7.03;;;18.90;99.90;;;;;;5021370;28;20044;-69
2023/09/12 02:55:08;;;;;;;17.83;7.18;;;19.00;99.90;;;;;;5021940;28;20025;-69
2023/09/12 02:57:33;;;;;;;18.23;8.32;;;19.10;99.90;;;;;;5022908;28;20028;-69
2023/09/12 02:59:59;;;;;;;16.95;7.13;;;19.10;99.90;;;;;;5022047;28;20021;-69
2023/09/12 03:02:25;;;;;;;17.45;7.45;;;19.10;99.90;;;;;;5022173;28;20083;-69
2023/09/12 03:04:50;;;;;;;14.40;6.95;;;19.00;99.90;;;;;;5022473;28;20028;-70
2023/09/12 03:07:16;;;;;;;19.83;6.53;;;18.90;99.90;;;;;;5022067;28;20032;-69
2023/09/12 03:09:41;;;;;;;15.18;7.40;;;18.80;99.90;;;;;;5021514;28;20090;-69
2023/09/12 03:12:07;;;;;;;21.63;7.55;;;18.80;99.90;;;;;;5021785;28;20026;-69
2023/09/12 03:14:32;;;;;;;18.17;7.50;;;18.90;99.90;;;;;;5021956;28;20032;-69
2023/09/12 03:16:58;;;;;;;15.95;7.93;;;18.90;99.90;;;;;;5022489;28;20028;-69
2023/09/12 03:19:24;;;;;;;26.08;8.05;;;19.00;99.90;;;;;;5022005;28;20029;-69
2023/09/12 03:21:49;;;;;;;20.30;8.52;;;19.10;99.90;;;;;;5021796;28;20025;-69
2023/09/12 03:24:18;;;;;;;14.85;7.50;;;19.10;99.90;;;;;;5021712;28;20025;-69
2023/09/12 03:26:43;;;;;;;17.08;7.57;;;19.00;99.90;;;;;;5022222;28;20029;-62
2023/09/12 03:29:09;;;;;;;14.25;7.88;;;19.00;99.90;;;;;;5021469;28;20036;-62
2023/09/12 03:31:35;;;;;;;20.73;8.23;;;18.90;99.90;;;;;;5021099;28;20024;-62
2023/09/12 03:34:01;;;;;;;17.42;7.40;;;18.90;99.90;;;;;;5021620;28;20067;-62
2023/09/12 03:36:26;;;;;;;16.20;8.02;;;18.90;99.90;;;;;;5021455;28;20014;-62
2023/09/12 03:38:52;;;;;;;19.42;8.02;;;18.90;99.90;;;;;;5021078;28;20036;-62
2023/09/12 03:41:18;;;;;;;16.95;7.93;;;18.90;99.90;;;;;;5021342;28;20029;-62
2023/09/12 03:43:43;;;;;;;21.90;8.00;;;18.90;99.90;;;;;;5021983;28;20057;-62
2023/09/12 03:46:09;;;;;;;20.67;8.20;;;19.00;99.90;;;;;;5020974;28;20057;-62
2023/09/12 03:48:36;;;;;;;19.13;8.63;;;18.90;99.90;;;;;;5021453;28;20036;-62
2023/09/12 03:51:03;;;;;;;18.63;8.38;;;18.90;99.90;;;;;;5020747;28;20112;-62
2023/09/12 03:53:29;;;;;;;17.58;7.30;;;18.90;99.90;;;;;;5038465;28;20041;-62
2023/09/12 03:55:55;;;;;;;14.85;7.18;;;18.70;99.90;;;;;;5020608;28;20018;-63
2023/09/12 03:58:21;;;;;;;17.40;6.93;;;18.60;99.90;;;;;;5020667;28;20022;-62
2023/09/12 04:00:47;;;;;;;14.23;7.25;;;18.50;99.90;;;;;;5021488;28;20112;-62
2023/09/12 04:03:12;;;;;;;15.52;7.38;;;18.40;99.90;;;;;;5020797;28;20048;-62
2023/09/12 04:05:38;;;;;;;15.57;7.60;;;18.50;99.90;;;;;;5020637;28;20171;-62
2023/09/12 04:08:04;;;;;;;17.98;7.80;;;18.50;99.90;;;;;;5020797;28;20028;-62
2023/09/12 04:10:29;;;;;;;11.63;7.47;;;18.50;99.90;;;;;;5020646;28;20090;-62
2023/09/12 04:12:55;;;;;;;14.50;7.25;;;18.50;99.90;;;;;;5021561;28;20028;-62
2023/09/12 04:15:20;;;;;;;18.58;7.38;;;18.50;99.90;;;;;;5020477;28;20026;-63
2023/09/12 04:17:46;;;;;;;16.42;7.38;;;18.50;99.90;;;;;;5020820;28;20025;-62
2023/09/12 04:20:14;;;;;;;17.45;6.80;;;18.50;99.90;;;;;;5020677;28;20029;-62
2023/09/12 04:22:43;;;;;;;17.70;6.68;;;18.50;99.90;;;;;;5020616;28;20040;-62
2023/09/12 04:25:09;;;;;;;12.25;6.25;;;18.60;99.90;;;;;;5020970;28;20076;-69
2023/09/12 04:27:34;;;;;;;19.13;7.32;;;18.70;99.90;;;;;;5020433;28;20026;-69
2023/09/12 04:30:00;;;;;;;18.58;7.75;;;18.60;99.90;;;;;;5020509;28;20028;-70
2023/09/12 04:32:26;;;;;;;13.93;6.85;;;18.60;99.90;;;;;;5020354;28;20120;-69
2023/09/12 04:34:51;;;;;;;17.80;6.90;;;18.60;99.90;;;;;;5021260;28;20022;-69
2023/09/12 04:37:17;;;;;;;20.15;7.45;;;18.50;99.90;;;;;;5020510;28;20018;-69
2023/09/12 04:39:43;;;;;;;16.92;6.78;;;18.50;99.90;;;;;;5020263;28;20033;-69
2023/09/12 04:42:09;;;;;;;18.63;7.05;;;18.60;99.90;;;;;;5020467;28;20030;-69
2023/09/12 04:44:36;;;;;;;17.08;8.23;;;18.60;99.90;;;;;;5020069;28;20022;-69
2023/09/12 04:47:02;;;;;;;17.30;7.65;;;18.70;99.90;;;;;;5019931;28;20022;-69
2023/09/12 04:49:28;;;;;;;15.75;7.90;;;18.80;99.90;;;;;;5020042;28;20037;-69
2023/09/12 04:51:53;;;;;;;14.98;7.32;;;19.00;99.90;;;;;;5020091;28;20022;-69
2023/09/12 04:54:19;;;;;;;18.65;8.05;;;19.00;99.90;;;;;;5020798;28;20072;-69
2023/09/12 04:56:44;;;;;;;16.48;8.52;;;18.90;99.90;;;;;;5020731;28;20033;-69
2023/09/12 04:59:10;;;;;;;23.35;8.73;;;18.90;99.90;;;;;;5020084;28;20026;-69
2023/09/12 05:01:35;;;;;;;15.43;7.70;;;18.90;99.90;;;;;;5020487;28;20036;-69
2023/09/12 05:04:02;;;;;;;25.42;8.75;;;18.90;99.90;;;;;;5020001;28;20029;-69
2023/09/12 05:06:28;;;;;;;18.95;7.80;;;19.00;99.90;;;;;;5020197;28;20048;-70
2023/09/12 05:08:54;;;;;;;21.75;8.23;;;19.10;99.90;;;;;;5019636;28;20030;-70
2023/09/12 05:11:19;;;;;;;15.77;8.15;;;19.20;99.90;;;;;;5020794;28;20021;-69
2023/09/12 05:13:45;;;;;;;14.13;7.47;;;19.20;99.90;;;;;;5019708;28;20029;-69
2023/09/12 05:16:10;;;;;;;15.43;7.65;;;19.30;99.90;;;;;;5026862;28;20021;-69
2023/09/12 05:18:36;;;;;;;17.27;7.63;;;19.20;99.90;;;;;;5026463;28;20021;-70
2023/09/12 05:21:01;;;;;;;16.95;7.57;;;19.10;99.90;;;;;;5026971;28;20113;-69
2023/09/12 05:23:28;;;;;;;19.15;7.82;;;18.90;99.90;;;;;;5026281;28;20127;-69
2023/09/12 05:25:53;;;;;;;17.10;7.43;;;18.80;99.90;;;;;;5026357;28;20049;-69
2023/09/12 05:28:19;;;;;;;19.75;8.90;;;18.80;99.90;;;;;;5026353;28;20056;-69
2023/09/12 05:30:45;;;;;;;18.38;7.55;;;18.80;99.90;;;;;;5026511;28;20025;-69
2023/09/12 05:33:10;;;;;;;16.42;7.13;;;18.90;99.90;;;;;;5026066;28;20041;-69
2023/09/12 05:35:37;;;;;;;20.58;7.45;;;18.90;99.90;;;;;;5026767;28;20025;-69
2023/09/12 05:38:03;;;;;;;17.08;7.35;;;18.90;99.90;;;;;;5027011;28;20079;-69
2023/09/12 05:40:28;;;;;;;18.85;7.55;;;18.80;99.90;;;;;;5025940;28;20021;-69
2023/09/12 05:42:54;;;;;;;17.00;7.70;;;18.90;99.90;;;;;;5025833;28;20111;-69
2023/09/12 05:45:20;;;;;;;13.15;6.70;;;18.90;99.90;;;;;;5025866;28;20067;-69
2023/09/12 05:47:45;;;;;;;23.70;7.78;;;18.90;99.90;;;;;;5026383;28;20025;-69
2023/09/12 05:50:11;;;;;;;22.00;7.70;;;19.10;99.90;;;;;;5026987;28;20025;-69
2023/09/12 05:52:37;;;;;;;16.08;6.55;;;19.10;99.90;;;;;;5026314;28;20021;-69
2023/09/12 05:55:04;;;;;;;18.92;7.60;;;19.20;99.90;;;;;;5026047;28;20022;-69
2023/09/12 05:57:33;;;;;;;16.70;7.22;;;19.20;99.90;;;;;;5026539;28;20018;-69
2023/09/12 05:59:59;;;;;;;16.70;7.03;;;19.20;99.90;;;;;;5026127;28;20021;-69
2023/09/12 06:02:25;;;;;;;24.67;8.85;;;19.20;99.90;;;;;;5025960;28;20017;-69
2023/09/12 06:04:51;;;;;;;17.98;7.95;;;19.20;99.90;;;;;;5025686;28;20022;-69
2023/09/12 06:07:17;;;;;;;15.52;8.02;;;19.30;99.90;;;;;;5025635;28;20026;-69
2023/09/12 06:09:42;;;;;;;19.27;8.15;;;19.40;99.90;;;;;;5025883;28;20021;-69
2023/09/12 06:12:08;;;;;;;20.73;7.75;;;19.40;99.90;;;;;;5025793;28;20048;-69
2023/09/12 06:14:33;;;;;;;17.40;8.18;;;19.50;99.90;;;;;;5026075;28;20025;-69
2023/09/12 06:16:59;;;;;;;18.13;7.85;;;19.50;99.90;;;;;;5025874;28;20022;-69
2023/09/12 06:19:24;;;;;;;20.60;8.75;;;19.50;99.90;;;;;;5025901;28;20025;-69
2023/09/12 06:21:50;;;;;;;17.13;8.40;;;19.50;99.90;;;;;;5026445;28;20033;-69
2023/09/12 06:24:19;;;;;;;21.40;9.35;;;19.50;99.90;;;;;;5025794;28;20163;-69
2023/09/12 06:26:45;;;;;;;27.17;8.50;;;19.50;99.90;;;;;;5022598;28;20022;-69
2023/09/12 06:29:11;;;;;;;15.55;8.35;;;19.40;99.90;;;;;;5023112;28;20033;-70
2023/09/12 06:31:36;;;;;;;17.55;8.10;;;19.40;99.90;;;;;;5022836;28;20056;-70
2023/09/12 06:34:02;;;;;;;21.45;8.60;;;19.40;99.90;;;;;;5023412;28;20025;-69
2023/09/12 06:36:31;;;;;;;17.27;8.30;;;19.40;99.90;;;;;;5023329;28;20030;-69
2023/09/12 06:38:57;;;;;;;21.90;8.65;;;19.50;99.90;;;;;;5022456;28;20025;-69
2023/09/12 06:41:23;;;;;;;17.02;8.52;;;19.50;99.90;;;;;;5022423;28;20092;-69
2023/09/12 06:43:48;;;;;;;21.70;8.48;;;19.50;99.90;;;;;;5022174;28;20059;-69
2023/09/12 06:46:14;;;;;;;16.08;7.80;;;19.50;99.90;;;;;;5022197;28;20025;-63
2023/09/12 06:48:39;;;;;;;14.65;8.15;;;19.40;99.90;;;;;;5022386;28;20022;-63
2023/09/12 06:51:06;;;;;;;17.88;8.90;;;19.40;99.90;;;;;;5022054;28;20112;-63
2023/09/12 06:53:32;;;;;;;13.90;8.35;;;19.30;99.90;;;;;;5022162;28;20025;-64
2023/09/12 06:55:58;;;;;;;20.15;9.30;;;19.40;99.90;;;;;;5022361;28;20022;-63
2023/09/12 06:58:25;;;;;;;20.17;9.15;;;19.40;99.90;;;;;;5021837;28;20036;-64
2023/09/12 07:00:50;;;;;;;21.60;10.02;;;19.60;99.90;;;;;;5022125;28;20021;-63
2023/09/12 07:03:16;;;;;;;19.63;9.13;;;19.60;99.90;;;;;;5021687;28;20025;-63
2023/09/12 07:05:42;;;;;;;21.80;10.13;;;19.70;99.90;;;;;;5022581;28;20029;-63
2023/09/12 07:08:08;;;;;;;19.25;9.98;;;19.80;99.90;;;;;;5021929;28;20072;-64
2023/09/12 07:10:34;;;;;;;20.52;10.35;;;19.80;99.90;;;;;;5021906;28;20053;-63
2023/09/12 07:12:59;;;;;;;21.10;9.32;;;19.90;99.90;;;;;;5021461;28;20040;-63
2023/09/12 07:15:25;;;;;;;14.82;9.50;;;19.90;99.90;;;;;;5021853;28;20029;-63
2023/09/12 07:17:50;;;;;;;21.90;9.90;;;19.90;99.90;;;;;;5021810;28;20026;-63
2023/09/12 07:20:17;;;;;;;27.80;9.80;;;19.90;99.90;;;;;;5021849;28;20031;-64
2023/09/12 07:22:43;;;;;;;16.10;8.70;;;19.90;99.90;;;;;;5022275;28;20112;-63
2023/09/12 07:25:11;;;;;;;21.10;9.13;;;19.90;99.90;;;;;;5021375;28;20056;-63
2023/09/12 07:27:37;;;;;;;18.27;9.00;;;19.90;99.90;;;;;;5022130;28;20026;-63
2023/09/12 07:30:05;;;;;;;29.77;9.48;;;19.90;99.90;;;;;;5021282;28;20018;-63
2023/09/12 07:32:30;;;;;;;27.52;9.32;;;20.00;99.90;;;;;;5021234;28;20120;-63
2023/09/12 07:34:56;;;;;;;22.35;9.07;;;20.10;99.90;;;;;;5021122;28;20057;-63
2023/09/12 07:37:22;;;;;;;25.42;10.40;;;20.20;99.90;;;;;;5020902;28;20032;-63
2023/09/12 07:39:47;;;;;;;17.42;8.70;;;20.30;99.90;;;;;;5020989;28;20032;-63
2023/09/12 07:42:13;;;;;;;20.30;9.57;;;20.50;99.90;;;;;;5021174;28;20022;-64
2023/09/12 07:44:38;;;;;;;21.70;9.00;;;20.60;99.90;;;;;;5022066;28;20112;-64
2023/09/12 07:47:05;;;;;;;17.70;10.02;;;20.50;99.90;;;;;;5020949;28;20033;-64
2023/09/12 07:49:30;;;;;;;26.00;8.68;;;20.40;99.90;;;;;;5021246;28;20116;-64
2023/09/12 07:51:57;;;;;;;16.55;9.10;;;20.50;99.90;;;;;;5020893;28;20066;-64
2023/09/12 07:54:22;;;;;;;16.13;8.18;;;20.50;99.90;;;;;;5020952;28;20032;-64
2023/09/12 07:56:48;;;;;;;15.32;7.43;;;20.50;99.90;;;;;;5020919;28;20025;-63
2023/09/12 07:59:14;;;;;;;17.80;9.63;;;20.60;99.90;;;;;;5020719;28;20113;-64
2023/09/12 08:01:40;;;;;;;21.92;9.32;;;20.80;99.90;;;;;;5021535;28;20033;-63
2023/09/12 08:04:05;;;;;;;21.15;8.90;;;21.00;99.90;;;;;;5021381;28;20028;-63
2023/09/12 08:06:32;;;;;;;23.15;9.68;;;21.00;99.90;;;;;;5021666;28;20021;-63
2023/09/12 08:08:58;;;;;;;18.05;8.77;;;21.10;99.90;;;;;;5020495;28;20025;-64
2023/09/12 08:11:24;;;;;;;18.63;9.15;;;21.30;99.90;;;;;;5020422;28;20025;-64
2023/09/12 08:13:50;;;;;;;18.33;7.43;;;21.40;99.90;;;;;;5020523;28;20017;-63
2023/09/12 08:16:16;;;;;;;20.50;8.27;;;21.50;99.90;;;;;;5020941;28;20024;-63
2023/09/12 08:18:41;;;;;;;29.63;9.02;;;21.60;99.90;;;;;;5020435;28;20083;-64
2023/09/12 08:21:07;;;;;;;18.38;6.82;;;21.70;99.90;;;;;;5020645;28;20029;-64
2023/09/12 08:23:33;;;;;;;20.65;8.38;;;21.80;99.90;;;;;;5021192;28;20025;-64
2023/09/12 08:25:58;;;;;;;24.42;8.82;;;21.80;99.90;;;;;;5020530;28;20056;-63
2023/09/12 08:28:24;;;;;;;25.35;7.93;;;22.10;99.90;;;;;;5020439;28;20030;-64
2023/09/12 08:30:50;;;;;;;22.67;8.30;;;22.20;99.90;;;;;;5021345;28;20045;-63
2023/09/12 08:33:15;;;;;;;15.77;7.25;;;22.20;99.90;;;;;;5020125;28;20030;-64
2023/09/12 08:35:41;;;;;;;26.10;8.65;;;22.30;99.90;;;;;;5020290;28;20029;-64
2023/09/12 08:38:06;;;;;;;20.98;8.85;;;22.30;99.90;;;;;;5020300;28;20025;-63
2023/09/12 08:40:35;;;;;;;15.20;7.63;;;22.40;99.90;;;;;;5020119;28;20029;-63
2023/09/12 08:43:05;;;;;;;18.90;7.93;;;22.60;99.90;;;;;;5020230;28;20048;-64
2023/09/12 08:45:30;;;;;;;16.15;7.43;;;22.70;99.90;;;;;;5020206;28;20025;-63
2023/09/12 08:48:00;;;;;;;16.75;7.53;;;22.70;99.90;;;;;;5020078;28;20091;-63
2023/09/12 08:50:30;;;;;;;18.88;8.27;;;22.80;99.90;;;;;;5019202;28;20017;-63
2023/09/12 08:52:56;;;;;;;18.75;7.45;;;22.80;99.90;;;;;;5020056;28;20018;-64
2023/09/12 08:55:22;;;;;;;15.13;6.82;;;22.90;99.90;;;;;;5020038;28;20051;-64
2023/09/12 08:57:50;;;;;;;13.93;8.10;;;23.10;99.90;;;;;;5021017;28;20022;-63
2023/09/12 09:00:16;;;;;;;15.23;7.20;;;23.20;99.90;;;;;;5020163;28;20060;-63
2023/09/12 09:02:42;;;;;;;16.35;7.05;;;23.20;99.90;;;;;;5020080;28;20022;-63
2023/09/12 09:05:09;;;;;;;18.33;8.60;;;23.30;99.90;;;;;;5020114;28;20021;-64
2023/09/12 09:07:39;;;;;;;19.67;8.73;;;23.40;99.90;;;;;;5020484;28;20025;-63
2023/09/12 09:10:08;;;;;;;22.65;8.75;;;23.50;99.90;;;;;;5020499;28;20057;-64
2023/09/12 09:12:34;;;;;;;16.38;8.50;;;23.60;99.90;;;;;;5019841;28;20028;-63
2023/09/12 09:15:27;;;;;;;17.08;7.38;;;23.60;99.90;;;;;;5020037;28;20108;-63
2023/09/12 09:17:55;;;;;;;16.05;7.90;;;23.70;99.90;;;;;;5020408;28;20014;-64
2023/09/12 09:20:31;;;;;;;12.60;7.50;;;23.80;99.90;;;;;;5019657;28;20017;-63
2023/09/12 09:23:05;;;;;;;15.13;7.00;;;24.00;99.90;;;;;;5019795;28;20022;-63
2023/09/12 09:25:34;;;;;;;16.73;8.57;;;24.00;99.90;;;;;;5019555;28;20045;-63
2023/09/12 09:28:04;;;;;;;27.45;8.05;;;24.20;99.90;;;;;;5020514;28;20029;-64
2023/09/12 09:30:46;;;;;;;17.65;7.85;;;24.30;99.90;;;;;;5037161;28;20021;-63
2023/09/12 09:33:12;;;;;;;20.20;6.88;;;24.40;99.90;;;;;;5019261;28;20068;-63
2023/09/12 09:35:41;;;;;;;19.35;7.75;;;24.60;99.90;;;;;;5037127;28;20104;-63
2023/09/12 09:38:07;;;;;;;18.15;7.80;;;24.60;99.90;;;;;;5036732;28;20025;-63
2023/09/12 09:40:34;;;;;;;17.40;7.28;;;24.70;99.90;;;;;;5019654;28;20029;-63
2023/09/12 09:43:01;;;;;;;15.00;6.93;;;24.80;99.90;;;;;;5019654;28;20025;-65
2023/09/12 09:45:29;;;;;;;9.07;6.30;;;24.90;99.90;;;;;;5019543;28;20105;-63
2023/09/12 09:48:04;;;;;;;14.90;6.88;;;25.10;99.90;;;;;;5036700;28;20085;-63
2023/09/12 09:50:30;;;;;;;17.40;6.55;;;25.20;99.90;;;;;;5020203;28;20025;-63
2023/09/12 09:52:57;;;;;;;13.02;6.82;;;25.20;99.90;;;;;;5019268;28;20013;-64
2023/09/12 09:55:23;;;;;;;18.17;6.85;;;25.30;99.90;;;;;;5019237;28;20049;-63
2023/09/12 09:57:51;;;;;;;19.52;7.50;;;25.40;99.90;;;;;;5020049;28;20045;-63
2023/09/12 10:00:18;;;;;;;16.75;6.63;;;25.50;99.90;;;;;;5036796;28;20013;-63
2023/09/12 10:02:45;;;;;;;16.70;6.80;;;25.50;99.90;;;;;;5040539;28;20029;-63
2023/09/12 10:05:12;;;;;;;19.10;6.75;;;25.70;99.90;;;;;;5040230;28;20036;-63
2023/09/12 10:07:40;;;;;;;16.13;6.35;;;25.70;99.90;;;;;;5023064;28;20057;-63
2023/09/12 10:10:07;;;;;;;14.50;6.78;;;25.80;99.90;;;;;;5022846;28;20072;-63
2023/09/12 10:12:36;;;;;;;16.02;6.95;;;25.90;99.90;;;;;;5022582;28;20082;-63
2023/09/12 10:15:04;;;;;;;15.82;6.28;;;25.90;99.90;;;;;;5022767;28;20019;-63
2023/09/12 10:17:36;;;;;;;21.10;7.60;;;25.90;99.90;;;;;;5022492;28;20022;-63
2023/09/12 10:20:04;;;;;;;14.45;6.95;;;26.00;99.90;;;;;;5040390;28;20036;-63
2023/09/12 10:22:39;;;;;;;20.65;6.78;;;26.20;99.90;;;;;;5040211;28;20029;-63
2023/09/12 10:25:05;;;;;;;18.00;7.35;;;26.30;99.90;;;;;;5039846;28;20035;-63
2023/09/12 10:27:32;;;;;;;23.65;8.73;;;26.30;99.90;;;;;;5022784;28;20033;-63
2023/09/12 10:29:59;;;;;;;17.30;7.45;;;26.40;99.90;;;;;;5039662;28;20036;-63
2023/09/12 10:32:27;;;;;;;18.00;6.88;;;26.40;99.90;;;;;;5023052;28;20060;-63
2023/09/12 10:34:53;;;;;;;18.55;7.00;;;26.40;99.90;;;;;;5039987;28;20022;-63
2023/09/12 10:37:23;;;;;;;12.13;7.43;;;26.50;99.90;;;;;;5040010;28;20018;-63
2023/09/12 10:39:49;;;;;;;16.92;7.30;;;26.50;99.90;;;;;;5022227;28;20060;-63
2023/09/12 10:42:16;;;;;;;16.02;7.72;;;26.60;99.90;;;;;;5022455;28;20033;-63
2023/09/12 10:44:44;;;;;;;16.83;7.82;;;26.70;99.90;;;;;;5039678;28;20059;-63
2023/09/12 10:47:10;;;;;;;14.98;6.95;;;26.70;99.90;;;;;;5022628;28;20083;-63
2023/09/12 10:49:37;;;;;;;17.45;6.20;;;26.80;99.90;;;;;;5039694;28;20022;-63
2023/09/12 10:52:03;;;;;;;15.05;6.43;;;26.90;99.90;;;;;;5022356;28;20022;-63
2023/09/12 10:54:38;;;;;;;14.10;6.47;;;26.90;99.90;;;;;;5039714;28;20022;-63
2023/09/12 10:57:13;;;;;;;11.02;6.22;;;27.00;99.90;;;;;;5022454;28;20025;-63
2023/09/12 10:59:58;;;;;;;13.05;6.03;;;27.00;99.90;;;;;;5022235;28;20025;-63
2023/09/12 11:02:31;;;;;;;17.00;7.55;;;27.10;99.90;;;;;;5038985;28;20025;-63
2023/09/12 11:04:57;;;;;;;14.63;6.90;;;27.20;99.90;;;;;;5022200;28;20029;-63
2023/09/12 11:07:43;;;;;;;14.68;7.13;;;27.20;99.90;;;;;;5021917;28;20025;-63
2023/09/12 11:10:15;;;;;;;16.58;6.13;;;27.30;99.90;;;;;;5022100;28;20029;-63
2023/09/12 11:12:42;;;;;;;14.95;6.50;;;27.30;99.90;;;;;;5038228;28;20018;-63
2023/09/12 11:15:10;;;;;;;12.93;6.45;;;27.30;99.90;;;;;;5022328;28;20026;-63
2023/09/12 11:17:42;;;;;;;17.25;7.57;;;27.40;99.90;;;;;;5021619;28;20029;-63
2023/09/12 11:20:10;;;;;;;15.27;7.13;;;27.40;99.90;;;;;;5038757;28;20026;-63
2023/09/12 11:22:39;;;;;;;17.85;5.97;;;27.40;99.90;;;;;;5021278;28;20075;-63
2023/09/12 11:25:15;;;;;;;11.45;5.57;;;27.40;99.90;;;;;;5038991;28;20026;-63
2023/09/12 11:27:55;;;;;;;16.33;6.05;;;27.40;99.90;;;;;;5021403;28;20025;-63
2023/09/12 11:30:23;;;;;;;19.58;7.05;;;27.50;99.90;;;;;;5038934;28;20044;-63
2023/09/12 11:32:51;;;;;;;9.52;6.38;;;27.60;99.90;;;;;;5021208;28;20072;-70
2023/09/12 11:35:28;;;;;;;10.20;6.43;;;27.80;99.90;;;;;;5021951;28;20025;-69
2023/09/12 11:37:59;;;;;;;16.40;6.97;;;27.80;99.90;;;;;;5038973;28;20024;-69
2023/09/12 11:40:26;;;;;;;;;;;27.80;99.90;;;;;;5021638;28;20037;-69
2023/09/12 11:42:52;;;;;;;16.90;6.18;;;27.80;99.90;;;;;;5038329;28;19912;-69
2023/09/12 11:45:19;;;;;;;14.25;7.53;;;27.80;99.90;;;;;;5038417;28;20026;-69
2023/09/12 11:47:46;;;;;;;12.82;7.38;;;28.00;99.90;;;;;;5038282;28;20021;-69
2023/09/12 11:50:32;;;;;;;11.05;5.25;;;28.00;99.90;;;;;;5020968;28;20060;-69
2023/09/12 11:53:06;;;;;;;13.15;5.65;;;28.10;99.90;;;;;;5038075;28;20025;-70
2023/09/12 11:55:35;;;;;;;17.23;6.63;;;28.20;99.90;;;;;;5021988;28;20094;-70
2023/09/12 11:58:00;;;;;;;22.02;7.47;;;28.30;99.90;;;;;;5021387;28;20159;-70
2023/09/12 12:00:27;;;;;;;15.90;6.15;;;28.40;99.90;;;;;;5021167;28;20052;-70
2023/09/12 12:02:54;;;;;;;18.25;6.05;;;28.50;99.90;;;;;;5020572;28;20048;-70
2023/09/12 12:05:20;;;;;;;12.52;5.60;;;28.40;99.90;;;;;;5021288;28;20026;-70
2023/09/12 12:07:47;;;;;;;11.27;5.45;;;28.30;99.90;;;;;;5020561;28;20028;-70
2023/09/12 12:10:13;;;;;;;14.43;5.35;;;28.30;99.90;;;;;;5038252;28;20045;-71
2023/09/12 12:12:38;;;;;;;13.48;6.40;;;28.30;99.90;;;;;;5021653;28;20064;-70
2023/09/12 12:15:11;;;;;;;16.70;6.38;;;28.40;99.90;;;;;;5020785;28;20028;-70
2023/09/12 12:17:37;;;;;;;16.90;6.65;;;28.40;99.90;;;;;;5037901;28;20083;-70
2023/09/12 12:20:09;;;;;;;18.92;6.90;;;28.80;99.90;;;;;;5020405;28;20022;-69
2023/09/12 12:22:39;;;;;;;12.80;5.82;;;29.10;99.90;;;;;;5037869;28;20029;-69
2023/09/12 12:25:11;;;;;;;18.48;6.70;;;29.10;99.90;;;;;;5019576;28;20036;-69
2023/09/12 12:27:38;;;;;;;10.52;6.03;;;29.00;99.90;;;;;;5020305;28;20045;-70
2023/09/12 12:30:06;;;;;;;12.55;5.97;;;28.90;99.90;;;;;;5037804;28;20079;-70
2023/09/12 12:32:32;;;;;;;13.55;5.53;;;28.70;99.90;;;;;;5019856;28;20033;-63
2023/09/12 12:34:58;;;;;;;15.85;6.63;;;28.50;99.90;;;;;;5020560;28;20022;-63
2023/09/12 12:37:32;;;;;;;17.08;6.30;;;28.40;99.90;;;;;;5037366;28;20111;-63